Van Nuys Airport
KVNY : now visible

Airfield :











YOU CAN JOIN US ON...

 
LOGIN :

Register | Disclaimer

   EN    FR    IT 

 









Legend :    VFR   Marginal VFR   IFR   Intensive IFR   Very Intensive IFR
Visi :
Ceiling :
>= 8 km
>= 3000ft
5 to 8 km
1000 to 3000 ft
1500m to 5 km
500 to 1000 ft
800 to 1500m
200 to 500 ft
< 800m
< 200 ft
Symbols :   Thunderstorms  Fog  Heavy snow  Heavy precipitations  Wind > 20 kt






- Airport Elevation : 802 ft


KVNY - Van Nuys

CURRENT METAR :
  • 091013Z AUTO 00000KT 10SM FEW019 BKN028 OVC033 14/10 A2995 RMK AO2 T01390100

EXPIRED METARs :
  • 090951Z AUTO 00000KT 10SM SCT028 OVC034 14/10 A2996 RMK AO2 SLP138 T01390100
  • 090851Z AUTO 15006KT 9SM BKN027 OVC037 13/11 A2996 RMK AO2 SLP139 T01330106 56008
  • 090751Z AUTO 13004KT 6SM BR FEW014 OVC038 13/11 A2997 RMK AO2 SLP143 T01330111 402060078

TAF KVNY
Valid from the 09 at 10:00 until the 10 at 06:00 UTC


091016Z 0910/1006 VRB03KT P6SM OVC035
FM091100 VRB03KT P6SM BKN025
FM091500 16006KT P6SM VCSH BKN015
FM091900 16008KT 3SM -RA BR BKN007
FM100300 29012KT P6SM SCT015
FM100500 36006KT P6SM SCT250
KZLA FIR / North America



MET'MAP, your aeronautical weather chart ! - Copyright ORBIFLY December 2007 - Disclaimer

ORBIFLY MET'MAP TEAM :

Programming & Development : Alexandra Zaïnal
Concept & original design : Baudouin d'Aumeries
Assistance for programming : Marc-Olivier Méhu
Technical & hardware support : Manuel Goepfert

Contact : metmap@orbifly.com




SOURCES & CREDITS :

   NOAA       Earth
Advisory